Time;durP1;ratioP1;P1;durP2;ratioP2;P2;SDS_P1;SDS_P2;PMS_P1;PMS_P2;Temp;Humidity;BMP_temperature;BMP_pressure;BME280_temperature;BME280_humidity;BME280_pressure;Samples;Min_cycle;Max_cycle;Signal;HPM_P1;HPM_P2
2023/02/24 00:02:00;;;;;;;35.20;22.75;;;10.40;99.90;;;;;;4948122;29;20048;-69
2023/02/24 00:04:33;;;;;;;39.05;22.70;;;10.10;99.90;;;;;;4934074;29;20043;-68
2023/02/24 00:07:01;;;;;;;32.33;22.33;;;9.60;99.90;;;;;;4935303;29;20047;-69
2023/02/24 00:09:32;;;;;;;30.55;22.05;;;9.40;99.90;;;;;;4948298;29;20075;-70
2023/02/24 00:12:07;;;;;;;34.78;22.17;;;9.60;99.90;;;;;;4930263;29;20083;-70
2023/02/24 00:14:38;;;;;;;35.67;22.35;;;9.90;99.90;;;;;;4947665;29;20039;-72
2023/02/24 00:17:09;;;;;;;38.15;21.35;;;10.00;99.90;;;;;;4929311;29;20483;-73
2023/02/24 00:19:37;;;;;;;35.45;21.98;;;9.90;99.90;;;;;;4951232;29;20043;-70
2023/02/24 00:22:07;;;;;;;35.42;21.00;;;9.70;99.90;;;;;;4946211;28;20127;-72
2023/02/24 00:24:35;;;;;;;35.53;22.35;;;9.70;99.90;;;;;;4919317;29;20070;-70
2023/02/24 00:27:06;;;;;;;31.13;21.33;;;9.70;99.90;;;;;;4934867;29;20408;-69
2023/02/24 00:29:36;;;;;;;34.60;21.88;;;9.90;99.90;;;;;;4934961;29;20130;-70
2023/02/24 00:32:06;;;;;;;30.67;21.23;;;9.90;99.90;;;;;;4954564;28;20043;-72
2023/02/24 00:34:36;;;;;;;28.23;20.77;;;9.90;99.90;;;;;;4938563;29;20055;-68
2023/02/24 00:37:07;;;;;;;37.70;20.47;;;9.90;99.90;;;;;;4948440;29;20035;-70
2023/02/24 00:39:40;;;;;;;33.40;21.70;;;10.00;99.90;;;;;;4951609;29;20552;-69
2023/02/24 00:42:08;;;;;;;36.55;22.65;;;10.20;99.90;;;;;;4938800;29;20043;-69
2023/02/24 00:44:38;;;;;;;30.85;22.33;;;10.30;99.90;;;;;;4955297;29;20506;-74
2023/02/24 00:47:33;;;;;;;36.03;23.30;;;10.00;99.90;;;;;;4954416;29;20043;-68
2023/02/24 00:50:05;;;;;;;42.03;23.13;;;9.60;99.90;;;;;;4920437;29;20098;-71
2023/02/24 00:52:33;;;;;;;33.88;21.88;;;9.40;99.90;;;;;;4951358;29;20039;-72
2023/02/24 00:55:00;;;;;;;28.33;21.35;;;9.10;99.90;;;;;;4954152;29;20047;-69
2023/02/24 00:57:28;;;;;;;36.72;23.77;;;9.00;99.90;;;;;;4922451;29;20090;-72
2023/02/24 00:59:57;;;;;;;40.05;23.10;;;8.80;99.90;;;;;;4938340;29;20050;-69
2023/02/24 01:02:28;;;;;;;29.90;21.88;;;8.80;99.90;;;;;;4950872;29;20047;-68
2023/02/24 01:04:55;;;;;;;;;;;9.10;99.90;;;;;;4951226;29;20046;-69
2023/02/24 01:07:22;;;;;;;31.40;20.65;;;9.40;99.90;;;;;;4934638;29;19922;-70
2023/02/24 01:09:50;;;;;;;31.58;21.40;;;9.40;99.90;;;;;;4953934;29;20167;-70
2023/02/24 01:12:37;;;;;;;30.30;22.23;;;9.40;99.90;;;;;;4937952;29;20043;-72
2023/02/24 01:15:07;;;;;;;36.13;22.00;;;9.50;99.90;;;;;;4937444;28;20051;-72
2023/02/24 01:17:36;;;;;;;;;;;9.50;99.90;;;;;;4938347;29;20118;-72
2023/02/24 01:20:13;;;;;;;33.05;22.48;;;9.50;99.90;;;;;;4953478;29;19931;-69
2023/02/24 01:22:46;;;;;;;34.70;21.45;;;9.60;99.90;;;;;;4950247;29;20040;-70
2023/02/24 01:25:13;;;;;;;31.33;20.77;;;9.40;99.90;;;;;;4951839;29;20045;-69
2023/02/24 01:27:41;;;;;;;26.75;20.02;;;9.00;99.90;;;;;;4956898;28;20051;-71
2023/02/24 01:30:14;;;;;;;35.80;22.58;;;8.80;99.90;;;;;;4953829;29;20043;-68
2023/02/24 01:32:43;;;;;;;29.80;20.33;;;8.90;99.90;;;;;;4937531;29;20073;-69
2023/02/24 01:35:13;;;;;;;;;;;9.00;99.90;;;;;;4934357;29;20043;-70
2023/02/24 01:37:41;;;;;;;30.13;20.23;;;8.90;99.90;;;;;;4940685;29;19934;-71
2023/02/24 01:40:17;;;;;;;33.03;20.98;;;8.70;99.90;;;;;;4936990;29;20046;-69
2023/02/24 01:42:46;;;;;;;30.50;21.05;;;8.60;99.90;;;;;;4953722;28;20051;-71
2023/02/24 01:45:21;;;;;;;29.73;20.85;;;8.60;99.90;;;;;;4953632;29;20050;-70
2023/02/24 01:47:50;;;;;;;27.77;19.92;;;8.50;99.90;;;;;;4953786;29;20079;-69
2023/02/24 01:50:20;;;;;;;27.80;18.98;;;8.50;99.90;;;;;;4936534;29;20039;-70
2023/02/24 01:52:51;;;;;;;26.75;19.92;;;8.20;99.90;;;;;;4953980;29;20090;-69
2023/02/24 01:55:28;;;;;;;;;;;8.00;99.90;;;;;;4953830;29;20116;-70
2023/02/24 01:57:57;;;;;;;33.75;20.42;;;8.00;99.90;;;;;;4952521;29;20017;-71
2023/02/24 02:00:36;;;;;;;31.67;20.77;;;8.30;99.90;;;;;;4937056;29;20478;-69
2023/02/24 02:03:25;;;;;;;31.80;19.98;;;8.50;99.90;;;;;;4953668;29;20292;-69
2023/02/24 02:05:57;;;;;;;28.77;21.15;;;8.60;99.90;;;;;;4953610;29;20039;-69
2023/02/24 02:08:26;;;;;;;26.92;19.95;;;9.00;99.90;;;;;;4953963;29;20047;-68
2023/02/24 02:10:57;;;;;;;30.83;20.70;;;9.00;99.90;;;;;;4952415;29;20055;-69
2023/02/24 02:14:02;;;;;;;27.85;20.67;;;8.70;99.90;;;;;;4936961;29;20488;-71
2023/02/24 02:16:50;;;;;;;27.48;20.00;;;8.40;99.90;;;;;;4945611;29;20062;-69
2023/02/24 02:19:38;;;;;;;27.00;19.30;;;8.20;99.90;;;;;;4934978;29;20077;-71
2023/02/24 02:22:25;;;;;;;26.42;18.40;;;8.30;99.90;;;;;;4935195;29;20090;-69
2023/02/24 02:24:55;;;;;;;28.33;19.27;;;8.20;99.90;;;;;;4953495;29;20758;-71
2023/02/24 02:27:44;;;;;;;31.17;20.85;;;8.00;99.90;;;;;;4936863;29;20039;-70
2023/02/24 02:30:42;;;;;;;25.88;18.88;;;8.00;99.90;;;;;;4952985;29;20143;-68
2023/02/24 02:33:20;;;;;;;31.05;19.40;;;8.00;99.90;;;;;;4952651;29;20507;-69
2023/02/24 02:36:12;;;;;;;30.92;19.80;;;8.00;99.90;;;;;;4936126;29;20062;-68
2023/02/24 02:38:56;;;;;;;27.95;18.73;;;8.10;99.90;;;;;;4934555;29;20145;-69
2023/02/24 02:42:00;;;;;;;24.02;18.55;;;8.00;99.90;;;;;;4953404;29;20050;-71
2023/02/24 02:44:39;;;;;;;29.10;18.27;;;7.90;99.90;;;;;;4926350;29;20057;-68
2023/02/24 02:47:35;;;;;;;23.38;17.48;;;8.10;99.90;;;;;;4935312;29;20043;-73
2023/02/24 02:50:21;;;;;;;25.02;18.27;;;8.30;99.90;;;;;;4949340;29;20036;-68
2023/02/24 02:52:57;;;;;;;24.92;17.63;;;8.60;99.90;;;;;;4953542;29;20051;-70
2023/02/24 02:55:52;;;;;;;28.15;18.38;;;8.30;99.90;;;;;;4947451;29;20448;-70
2023/02/24 02:58:25;;;;;;;23.98;17.42;;;8.30;99.90;;;;;;4930716;29;20075;-68
2023/02/24 03:01:01;;;;;;;25.63;17.75;;;8.30;99.90;;;;;;4953205;29;20043;-69
2023/02/24 03:03:33;;;;;;;27.15;18.48;;;8.40;99.90;;;;;;4936009;29;20059;-69
2023/02/24 03:06:22;;;;;;;29.42;18.13;;;8.50;99.90;;;;;;4940005;29;20103;-69
2023/02/24 03:09:00;;;;;;;27.15;18.75;;;8.30;99.90;;;;;;4938457;29;20048;-69
2023/02/24 03:11:31;;;;;;;26.42;18.20;;;8.40;99.90;;;;;;4943783;29;20043;-67
2023/02/24 03:14:01;;;;;;;24.27;17.92;;;8.30;99.90;;;;;;4935979;29;20047;-69
2023/02/24 03:16:29;;;;;;;26.73;18.88;;;8.40;99.90;;;;;;4951824;29;20079;-69
2023/02/24 03:19:02;;;;;;;29.08;19.63;;;8.40;99.90;;;;;;4950624;29;20039;-68
2023/02/24 03:21:39;;;;;;;27.80;19.10;;;8.50;99.90;;;;;;4931475;29;20049;-68
2023/02/24 03:24:07;;;;;;;23.95;17.98;;;8.50;99.90;;;;;;4952957;29;20391;-70
2023/02/24 03:26:48;;;;;;;32.15;19.20;;;8.20;99.90;;;;;;4935233;29;20419;-71
2023/02/24 03:29:29;;;;;;;28.60;18.08;;;7.90;99.90;;;;;;4941309;29;20066;-69
2023/02/24 03:32:11;;;;;;;27.42;18.90;;;7.70;99.90;;;;;;4947630;29;20078;-67
2023/02/24 03:34:54;;;;;;;30.63;20.63;;;8.00;99.90;;;;;;4946241;29;20054;-70
2023/02/24 03:37:25;;;;;;;33.15;22.85;;;8.00;99.90;;;;;;4943060;29;20091;-70
2023/02/24 03:39:57;;;;;;;28.73;21.05;;;8.00;99.90;;;;;;4932420;29;20502;-69
2023/02/24 03:42:29;;;;;;;29.80;20.25;;;8.00;99.90;;;;;;4943957;29;20394;-69
2023/02/24 03:44:57;;;;;;;33.88;20.00;;;8.00;99.90;;;;;;4945273;29;20483;-70
2023/02/24 03:47:25;;;;;;;34.13;23.10;;;8.10;99.90;;;;;;4935541;29;20046;-69
2023/02/24 03:49:52;;;;;;;30.60;22.65;;;8.10;99.90;;;;;;4945601;29;20112;-67
2023/02/24 03:52:39;;;;;;;35.20;23.65;;;7.90;99.90;;;;;;4949746;29;20048;-69
2023/02/24 03:55:27;;;;;;;40.55;24.48;;;7.90;99.90;;;;;;4947655;29;20040;-69
2023/02/24 03:58:11;;;;;;;37.97;26.55;;;7.70;99.90;;;;;;4947070;29;20047;-68
2023/02/24 04:00:58;;;;;;;38.47;23.92;;;7.80;99.90;;;;;;4944875;29;20046;-69
2023/02/24 04:03:56;;;;;;;29.85;20.63;;;7.80;99.90;;;;;;4952508;29;20402;-70
2023/02/24 04:06:45;;;;;;;33.10;22.02;;;7.70;99.90;;;;;;4925199;29;20032;-68
2023/02/24 04:09:28;;;;;;;38.42;23.98;;;7.90;99.90;;;;;;4943097;29;20103;-70
2023/02/24 04:12:12;;;;;;;39.85;25.73;;;8.00;99.90;;;;;;4951560;29;20440;-68
2023/02/24 04:14:50;;;;;;;37.53;25.52;;;8.00;99.90;;;;;;4946791;29;20060;-68
2023/02/24 04:17:25;;;;;;;41.15;26.05;;;7.70;99.90;;;;;;4954306;29;20042;-69
2023/02/24 04:19:58;;;;;;;45.72;28.83;;;7.60;99.90;;;;;;4938747;29;20051;-70
2023/02/24 04:22:28;;;;;;;41.47;28.58;;;7.80;99.90;;;;;;4937295;29;20040;-71
2023/02/24 04:24:58;;;;;;;46.38;30.55;;;7.80;99.90;;;;;;4952114;29;20044;-69
2023/02/24 04:27:27;;;;;;;42.60;30.08;;;7.70;99.90;;;;;;4936843;29;20047;-71
2023/02/24 04:29:58;;;;;;;46.55;28.73;;;7.80;99.90;;;;;;4939264;29;20070;-70
2023/02/24 04:32:29;;;;;;;45.05;29.02;;;7.70;99.90;;;;;;4938926;29;20071;-71
2023/02/24 04:35:08;;;;;;;39.63;27.02;;;7.60;99.90;;;;;;4939083;29;20048;-72
2023/02/24 04:37:37;;;;;;;41.85;27.73;;;7.50;99.90;;;;;;4937801;29;20509;-71
2023/02/24 04:40:27;;;;;;;46.17;27.85;;;7.50;99.90;;;;;;4955562;29;20047;-69
2023/02/24 04:42:54;;;;;;;44.33;27.30;;;7.60;99.90;;;;;;4938751;29;20372;-70
2023/02/24 04:45:22;;;;;;;36.67;27.40;;;7.60;99.90;;;;;;4951180;29;20044;-71
2023/02/24 04:47:54;;;;;;;43.72;28.02;;;7.60;99.90;;;;;;4926661;29;20389;-70
2023/02/24 04:50:25;;;;;;;36.33;25.38;;;7.40;99.90;;;;;;4941136;29;20039;-70
2023/02/24 04:52:55;;;;;;;42.70;27.38;;;7.40;99.90;;;;;;4955310;29;20074;-70
2023/02/24 04:55:27;;;;;;;37.55;26.48;;;7.40;99.90;;;;;;4935485;29;20054;-71
2023/02/24 04:57:56;;;;;;;41.35;27.55;;;7.20;99.90;;;;;;4948239;29;20142;-72
2023/02/24 05:00:25;;;;;;;39.92;25.95;;;7.30;99.90;;;;;;4955201;29;20039;-69
2023/02/24 05:02:55;;;;;;;39.20;26.35;;;7.50;99.90;;;;;;4952860;29;20118;-70
2023/02/24 05:05:26;;;;;;;37.85;25.73;;;7.40;99.90;;;;;;4948829;29;20098;-68
2023/02/24 05:07:56;;;;;;;40.17;25.00;;;7.50;99.90;;;;;;4937802;29;20051;-71
2023/02/24 05:10:26;;;;;;;40.42;26.08;;;7.40;99.90;;;;;;4938285;29;20411;-71
2023/02/24 05:12:57;;;;;;;36.17;25.55;;;7.50;99.90;;;;;;4918977;29;20062;-70
2023/02/24 05:15:31;;;;;;;38.85;26.45;;;7.40;99.90;;;;;;4942108;29;20086;-67
2023/02/24 05:18:06;;;;;;;40.22;26.45;;;7.40;99.90;;;;;;4952073;28;20128;-68
2023/02/24 05:23:43;;;;;;;37.78;26.58;;;7.20;99.90;;;;;;4947561;29;20098;-71
2023/02/24 05:26:16;;;;;;;40.05;26.25;;;7.20;99.90;;;;;;4953459;29;20043;-69
2023/02/24 05:28:47;;;;;;;37.85;26.52;;;7.30;99.90;;;;;;4937266;29;20147;-69
2023/02/24 05:31:24;;;;;;;40.65;27.45;;;7.30;99.90;;;;;;4920850;29;20071;-68
2023/02/24 05:34:01;;;;;;;51.63;29.27;;;7.40;99.90;;;;;;4939911;29;20487;-69
2023/02/24 05:36:38;;;;;;;41.95;28.25;;;7.40;99.90;;;;;;4934387;29;20036;-67
2023/02/24 05:39:10;;;;;;;45.15;29.88;;;7.50;99.90;;;;;;4952534;29;20435;-69
2023/02/24 05:41:40;;;;;;;46.72;29.85;;;7.50;99.90;;;;;;4952887;29;20043;-69
2023/02/24 05:44:12;;;;;;;39.83;28.67;;;7.50;99.90;;;;;;4937011;29;20057;-70
2023/02/24 05:46:41;;;;;;;42.03;27.77;;;7.40;99.90;;;;;;4934837;29;20110;-67
2023/02/24 05:49:19;;;;;;;41.08;27.38;;;7.60;99.90;;;;;;4945030;29;20043;-72
2023/02/24 05:51:56;;;;;;;40.88;28.27;;;7.40;99.90;;;;;;4949696;29;20035;-69
2023/02/24 05:54:28;;;;;;;38.15;24.73;;;7.50;99.90;;;;;;4936626;29;20044;-69
2023/02/24 05:57:05;;;;;;;40.25;27.23;;;7.60;99.90;;;;;;4942598;29;20047;-73
2023/02/24 05:59:32;;;;;;;37.13;24.30;;;7.60;99.90;;;;;;4951978;29;20047;-69
2023/02/24 06:02:06;;;;;;;37.00;26.58;;;7.70;99.90;;;;;;4936694;29;20051;-70
2023/02/24 06:04:39;;;;;;;38.03;25.23;;;7.80;99.90;;;;;;4952636;29;20039;-69
2023/02/24 06:07:17;;;;;;;35.25;23.98;;;7.80;99.90;;;;;;4936158;29;20039;-69
2023/02/24 06:09:52;;;;;;;29.77;21.83;;;7.70;99.90;;;;;;4951548;29;20050;-73
2023/02/24 06:12:22;;;;;;;35.50;22.35;;;7.70;99.90;;;;;;4952285;29;20035;-68
2023/02/24 06:14:49;;;;;;;43.72;24.60;;;7.80;99.90;;;;;;4952872;29;20047;-71
2023/02/24 06:17:17;;;;;;;33.90;23.65;;;8.00;99.90;;;;;;4950753;29;20114;-70
2023/02/24 06:19:48;;;;;;;35.80;22.88;;;8.20;99.90;;;;;;4949211;29;20050;-72
2023/02/24 06:22:20;;;;;;;74.97;48.22;;;8.20;99.90;;;;;;4950319;29;20039;-72
2023/02/24 06:24:48;;;;;;;55.70;37.03;;;8.50;99.90;;;;;;4951021;29;20150;-73
2023/02/24 06:27:18;;;;;;;174.70;99.07;;;8.50;99.90;;;;;;4940625;29;20136;-71
2023/02/24 06:29:50;;;;;;;79.38;49.80;;;8.50;99.90;;;;;;4949359;28;20042;-70
2023/02/24 06:32:20;;;;;;;99.57;61.22;;;8.30;99.90;;;;;;4917039;29;20056;-69
2023/02/24 06:34:48;;;;;;;92.82;54.08;;;8.30;99.90;;;;;;4932348;29;20107;-71
2023/02/24 06:37:17;;;;;;;37.90;27.25;;;8.50;99.90;;;;;;4917137;29;20051;-69
2023/02/24 06:39:45;;;;;;;34.05;23.13;;;8.50;99.90;;;;;;4934518;29;20043;-70
2023/02/24 06:42:12;;;;;;;30.02;22.58;;;8.50;99.90;;;;;;4914205;29;20052;-70
2023/02/24 06:44:40;;;;;;;35.00;21.77;;;8.70;99.90;;;;;;4915728;29;20139;-69
2023/02/24 06:47:12;;;;;;;35.97;23.42;;;8.70;99.90;;;;;;4926929;29;20044;-69
2023/02/24 06:49:46;;;;;;;38.35;24.13;;;8.70;99.90;;;;;;4912200;29;20138;-69
2023/02/24 06:52:17;;;;;;;40.35;23.83;;;8.70;99.90;;;;;;4923075;29;20058;-69
2023/02/24 06:54:48;;;;;;;36.58;24.58;;;8.80;99.90;;;;;;4915363;29;20399;-69
2023/02/24 06:57:15;;;;;;;34.47;24.38;;;8.80;99.90;;;;;;4920951;29;20420;-73
2023/02/24 06:59:44;;;;;;;37.17;25.80;;;8.70;99.90;;;;;;4927488;29;20044;-70
2023/02/24 07:02:12;;;;;;;40.35;24.70;;;8.70;99.90;;;;;;4927656;29;20412;-72
2023/02/24 07:04:42;;;;;;;42.95;29.23;;;9.00;99.90;;;;;;4916154;29;20036;-71
2023/02/24 07:07:12;;;;;;;59.70;36.35;;;9.30;99.90;;;;;;4915994;29;20044;-72
2023/02/24 07:09:41;;;;;;;37.88;27.75;;;9.10;99.90;;;;;;4924636;29;20063;-72
2023/02/24 07:12:12;;;;;;;37.83;23.83;;;9.20;99.90;;;;;;4928502;29;20548;-72
2023/02/24 07:14:40;;;;;;;33.28;23.92;;;9.20;99.90;;;;;;4933166;29;20052;-70
2023/02/24 07:17:07;;;;;;;32.63;23.75;;;9.10;99.90;;;;;;4916986;29;20052;-70
2023/02/24 07:19:35;;;;;;;40.75;26.42;;;9.40;99.90;;;;;;4922576;29;20051;-71
2023/02/24 07:22:03;;;;;;;36.35;25.13;;;9.50;99.90;;;;;;4916296;29;20503;-70
2023/02/24 07:24:39;;;;;;;34.15;24.77;;;9.60;99.90;;;;;;4906080;29;20384;-70
2023/02/24 07:27:20;;;;;;;38.47;25.20;;;9.70;99.90;;;;;;4927361;29;20066;-70
2023/02/24 07:29:49;;;;;;;39.90;26.63;;;9.90;99.90;;;;;;4925419;29;20067;-72
2023/02/24 07:32:24;;;;;;;40.70;25.60;;;9.60;99.90;;;;;;4934210;29;20151;-72
2023/02/24 07:34:51;;;;;;;40.25;25.55;;;9.70;99.90;;;;;;4926051;29;20040;-69
2023/02/24 07:37:19;;;;;;;36.67;24.15;;;9.80;99.90;;;;;;4941382;29;20575;-71
2023/02/24 07:39:47;;;;;;;39.55;24.40;;;9.90;99.90;;;;;;4935812;29;20044;-71
2023/02/24 07:42:14;;;;;;;40.97;24.20;;;10.00;99.90;;;;;;4945885;29;20501;-72
2023/02/24 07:44:43;;;;;;;37.92;25.45;;;10.20;99.90;;;;;;4929570;29;20040;-72
2023/02/24 07:47:10;;;;;;;36.33;25.00;;;10.20;99.90;;;;;;4936985;29;20380;-71
2023/02/24 07:49:39;;;;;;;35.55;23.10;;;10.40;99.90;;;;;;4936249;29;20063;-71
2023/02/24 07:52:07;;;;;;;35.92;23.63;;;10.10;99.90;;;;;;4935573;29;20492;-71
2023/02/24 07:54:36;;;;;;;33.65;23.10;;;10.20;99.90;;;;;;4936049;29;20047;-70
2023/02/24 07:57:05;;;;;;;30.58;21.80;;;10.10;99.90;;;;;;4943356;28;20044;-72
2023/02/24 07:59:36;;;;;;;31.08;22.52;;;10.20;99.90;;;;;;4949087;29;20050;-70
2023/02/24 08:02:06;;;;;;;33.25;21.92;;;10.20;99.90;;;;;;4936267;29;20436;-71
2023/02/24 08:04:38;;;;;;;32.03;23.33;;;10.10;99.90;;;;;;4935757;29;20062;-71
2023/02/24 08:07:13;;;;;;;34.95;22.08;;;10.20;99.90;;;;;;4920009;29;20496;-72
2023/02/24 08:12:16;;;;;;;38.97;23.73;;;10.70;99.90;;;;;;4933528;29;20415;-72
2023/02/24 08:14:49;;;;;;;38.72;23.92;;;10.90;99.90;;;;;;4936962;29;20048;-71
2023/02/24 08:17:19;;;;;;;37.97;23.63;;;11.00;99.90;;;;;;4931737;29;20119;-71
2023/02/24 08:19:49;;;;;;;38.75;24.75;;;11.30;99.90;;;;;;4913088;29;20040;-72
2023/02/24 08:22:19;;;;;;;41.33;24.15;;;11.60;99.90;;;;;;4924867;29;20043;-72
2023/02/24 08:24:59;;;;;;;35.55;23.10;;;11.60;99.90;;;;;;4935478;29;20050;-72
2023/02/24 08:27:31;;;;;;;;;;;11.80;99.90;;;;;;4936170;29;20047;-72
2023/02/24 08:30:02;;;;;;;41.03;22.33;;;11.90;99.90;;;;;;4937489;29;19926;-71
2023/02/24 08:32:42;;;;;;;31.95;21.70;;;12.20;99.90;;;;;;4956333;29;20062;-71
2023/02/24 08:35:14;;;;;;;29.58;20.10;;;12.20;99.90;;;;;;4955496;29;20504;-72
2023/02/24 08:37:48;;;;;;;31.30;21.67;;;12.20;99.90;;;;;;4938786;29;20413;-72
2023/02/24 08:40:38;;;;;;;34.03;21.33;;;12.20;99.90;;;;;;4954330;29;20087;-71
2023/02/24 08:43:18;;;;;;;35.50;21.90;;;12.40;99.90;;;;;;4938344;29;20047;-70
2023/02/24 08:45:50;;;;;;;35.53;21.55;;;12.40;99.90;;;;;;4943479;29;20046;-71
2023/02/24 08:48:36;;;;;;;33.95;23.15;;;12.70;99.90;;;;;;4941672;29;20050;-71
2023/02/24 08:51:16;;;;;;;36.00;22.90;;;12.90;99.90;;;;;;4942572;29;20412;-71
2023/02/24 08:53:45;;;;;;;33.47;23.05;;;13.10;99.90;;;;;;4936984;29;20122;-71
2023/02/24 08:56:22;;;;;;;33.22;23.90;;;13.20;99.90;;;;;;4931989;29;20051;-71
2023/02/24 08:58:56;;;;;;;38.38;25.38;;;13.10;99.90;;;;;;4940045;29;20575;-73
2023/02/24 09:01:35;;;;;;;33.80;24.38;;;13.30;99.90;;;;;;4952543;29;20509;-72
2023/02/24 09:04:17;;;;;;;38.28;24.02;;;13.50;99.90;;;;;;4955110;29;20047;-73
2023/02/24 09:06:56;;;;;;;40.80;24.65;;;13.60;99.90;;;;;;4955228;29;20383;-70
2023/02/24 09:09:40;;;;;;;47.88;29.70;;;13.70;99.90;;;;;;4944320;29;20044;-72
2023/02/24 09:12:20;;;;;;;41.35;27.05;;;13.80;99.90;;;;;;4954700;29;20431;-72
2023/02/24 09:14:55;;;;;;;41.10;28.30;;;13.70;99.90;;;;;;4937935;29;20549;-73
2023/02/24 09:23:18;;;;;;;44.47;28.92;;;13.70;99.90;;;;;;4947134;29;20402;-72
2023/02/24 09:25:49;;;;;;;29.10;22.33;;;14.00;99.90;;;;;;4935507;29;20506;-72
2023/02/24 09:28:23;;;;;;;;;;;14.20;99.90;;;;;;4938996;29;20043;-72
2023/02/24 09:30:57;;;;;;;29.88;20.40;;;13.90;99.90;;;;;;4954438;29;19925;-72
2023/02/24 09:33:40;;;;;;;28.77;20.38;;;14.00;99.90;;;;;;4942350;29;20043;-71
2023/02/24 09:36:43;;;;;;;32.15;21.23;;;13.90;99.90;;;;;;4937604;29;20424;-72
2023/02/24 09:41:52;;;;;;;34.95;20.42;;;14.30;99.90;;;;;;4954469;29;20114;-73
2023/02/24 09:44:39;;;;;;;40.35;19.55;;;14.60;99.90;;;;;;4927034;29;20452;-73
2023/02/24 09:47:29;;;;;;;29.88;19.60;;;14.60;99.90;;;;;;4949544;29;20130;-73
2023/02/24 09:50:04;;;;;;;30.48;20.27;;;14.90;99.90;;;;;;4931065;29;20106;-72
2023/02/24 09:52:40;;;;;;;28.05;19.98;;;14.90;99.90;;;;;;4945129;29;20050;-71
2023/02/24 09:55:23;;;;;;;33.50;19.73;;;15.20;99.90;;;;;;4937082;29;20043;-72
2023/02/24 10:01:29;;;;;;;31.25;18.70;;;15.20;99.90;;;;;;4944665;29;20051;-72
2023/02/24 10:04:35;;;;;;;28.42;17.58;;;15.00;99.90;;;;;;4948250;28;20043;-70
2023/02/24 10:07:40;;;;;;;23.27;17.25;;;14.90;99.90;;;;;;4953116;29;20047;-71
2023/02/24 10:10:26;;;;;;;35.03;21.00;;;15.30;99.90;;;;;;4947257;29;20043;-71
2023/02/24 10:13:29;;;;;;;33.40;20.05;;;15.60;99.90;;;;;;4952493;29;20054;-72
2023/02/24 10:16:04;;;;;;;38.03;22.45;;;16.10;99.90;;;;;;4947208;29;20047;-71
2023/02/24 10:18:59;;;;;;;27.85;18.65;;;16.70;99.90;;;;;;4952070;29;20130;-70
2023/02/24 10:21:59;;;;;;;37.60;18.40;;;16.10;99.90;;;;;;4947104;29;20106;-72
2023/02/24 10:24:48;;;;;;;31.02;19.20;;;16.30;99.90;;;;;;4941852;29;20399;-73
2023/02/24 10:27:22;;;;;;;39.88;19.50;;;16.60;99.50;;;;;;4946921;29;20053;-71
2023/02/24 10:30:09;;;;;;;36.33;17.05;;;16.80;98.90;;;;;;4951127;29;20047;-71
2023/02/24 10:32:45;;;;;;;31.30;17.27;;;16.60;97.40;;;;;;4934656;29;20449;-72
2023/02/24 10:35:19;;;;;;;26.02;18.75;;;17.10;98.00;;;;;;4933129;29;20083;-71
2023/02/24 10:37:48;;;;;;;32.75;18.35;;;17.60;97.00;;;;;;4946496;29;20393;-71
2023/02/24 10:40:32;;;;;;;31.30;16.88;;;17.70;96.00;;;;;;4942139;29;20055;-71
2023/02/24 10:43:09;;;;;;;34.38;16.17;;;17.00;95.70;;;;;;4933367;29;20036;-70
2023/02/24 10:45:43;;;;;;;29.45;16.20;;;16.70;96.20;;;;;;4931073;29;20051;-69
2023/02/24 10:48:37;;;;;;;33.25;16.35;;;16.60;96.40;;;;;;4933422;29;20050;-68
2023/02/24 10:51:36;;;;;;;31.27;18.10;;;16.50;97.50;;;;;;4934638;29;20460;-69
2023/02/24 10:54:21;;;;;;;27.45;15.77;;;16.60;97.20;;;;;;4932311;29;20059;-72
2023/02/24 11:03:05;;;;;;;32.40;13.73;;;16.70;95.30;;;;;;4932492;29;20035;-70
2023/02/24 11:08:43;;;;;;;29.00;13.80;;;16.20;95.90;;;;;;4932583;29;20039;-71
2023/02/24 11:11:24;;;;;;;23.55;16.25;;;16.20;96.00;;;;;;4947870;29;20039;-70
2023/02/24 11:19:48;;;;;;;20.23;13.02;;;16.30;95.10;;;;;;4927213;29;20040;-71
2023/02/24 11:22:20;;;;;;;18.92;12.70;;;16.30;95.70;;;;;;4941476;29;20402;-72
2023/02/24 11:24:49;;;;;;;19.88;13.70;;;16.40;95.30;;;;;;4931253;29;20082;-74
2023/02/24 11:27:24;;;;;;;18.92;12.75;;;16.50;95.10;;;;;;4933098;29;20415;-71
2023/02/24 11:30:15;;;;;;;21.23;12.70;;;16.60;95.00;;;;;;4922684;29;20075;-69
2023/02/24 11:33:01;;;;;;;18.08;12.55;;;16.60;95.20;;;;;;4949105;29;20118;-71
2023/02/24 11:36:02;;;;;;;29.42;13.77;;;16.80;94.60;;;;;;4951483;29;20731;-69
2023/02/24 11:38:45;;;;;;;20.73;12.82;;;17.20;94.40;;;;;;4950749;29;20061;-72
2023/02/24 11:41:21;;;;;;;20.25;12.35;;;17.70;93.40;;;;;;4948757;29;20044;-71
2023/02/24 11:43:58;;;;;;;18.48;12.32;;;17.70;93.10;;;;;;4949414;29;20047;-71
2023/02/24 11:46:43;;;;;;;15.75;12.75;;;18.00;92.30;;;;;;4948603;29;20090;-72
2023/02/24 11:49:24;;;;;;;19.27;13.52;;;18.60;90.70;;;;;;4948501;29;20416;-73
2023/02/24 11:51:53;;;;;;;21.67;12.65;;;19.20;89.10;;;;;;4948427;29;20039;-70
2023/02/24 11:54:22;;;;;;;25.43;13.30;;;20.00;86.70;;;;;;4948873;29;20043;-72
2023/02/24 11:56:57;;;;;;;20.15;12.85;;;20.40;83.40;;;;;;4932927;29;20043;-71
2023/02/24 11:59:44;;;;;;;21.30;17.05;;;19.80;83.50;;;;;;4947218;29;20051;-71
2023/02/24 12:02:45;;;;;;;17.23;12.73;;;20.00;82.70;;;;;;4948666;29;20403;-72
2023/02/24 12:05:15;;;;;;;24.67;14.13;;;20.10;81.90;;;;;;4948660;29;20090;-70
2023/02/24 12:07:57;;;;;;;17.15;12.07;;;20.10;79.30;;;;;;4949151;29;20039;-71
2023/02/24 12:10:30;;;;;;;15.27;11.75;;;20.10;79.40;;;;;;4949852;29;20047;-72
2023/02/24 12:13:01;;;;;;;16.77;12.18;;;20.10;78.30;;;;;;4943850;29;20403;-70
2023/02/24 12:15:40;;;;;;;17.08;12.77;;;20.40;78.50;;;;;;4947923;29;20039;-72
2023/02/24 12:18:29;;;;;;;16.73;12.35;;;20.50;77.40;;;;;;4934402;29;20035;-71
2023/02/24 12:21:19;;;;;;;15.80;11.55;;;20.30;77.80;;;;;;4931794;29;20499;-72
2023/02/24 12:24:01;;;;;;;;;;;21.00;76.20;;;;;;4951404;29;20368;-70
2023/02/24 12:27:20;;;;;;;15.32;11.55;;;21.30;74.80;;;;;;4929945;29;19930;-71
2023/02/24 12:30:36;;;;;;;17.23;12.43;;;22.60;71.60;;;;;;4912209;29;20047;-71
2023/02/24 12:33:12;;;;;;;16.70;12.65;;;24.50;66.10;;;;;;4895226;29;20048;-70
2023/02/24 12:36:10;;;;;;;19.52;15.55;;;24.20;65.10;;;;;;4880147;29;20090;-71
2023/02/24 12:38:46;;;;;;;19.70;13.70;;;25.70;61.90;;;;;;4940177;29;20055;-69
2023/02/24 12:41:35;;;;;;;15.77;12.38;;;27.20;58.80;;;;;;4953138;29;20071;-72
2023/02/24 12:44:22;;;;;;;16.95;13.23;;;27.60;57.00;;;;;;4951858;29;20049;-71
2023/02/24 12:47:10;;;;;;;15.38;12.25;;;26.20;57.50;;;;;;4952687;29;20475;-70
2023/02/24 12:49:57;;;;;;;18.98;12.82;;;25.80;57.80;;;;;;4953904;29;20042;-72
2023/02/24 12:52:27;;;;;;;16.23;12.45;;;25.90;57.00;;;;;;4932781;29;20047;-70
2023/02/24 12:55:05;;;;;;;18.58;13.90;;;25.90;56.70;;;;;;4950893;29;20129;-70
2023/02/24 12:57:54;;;;;;;18.50;12.38;;;26.70;55.70;;;;;;4934913;29;20035;-70
2023/02/24 13:00:40;;;;;;;16.67;12.10;;;26.40;55.00;;;;;;4954409;28;20046;-71
2023/02/24 13:03:32;;;;;;;13.98;11.02;;;26.60;55.20;;;;;;4953604;29;20066;-73
2023/02/24 13:06:37;;;;;;;16.42;12.02;;;26.70;55.50;;;;;;4951697;29;20039;-71
2023/02/24 13:09:17;;;;;;;17.98;11.82;;;26.10;56.40;;;;;;4951179;29;20114;-69
2023/02/24 13:12:02;;;;;;;19.65;12.98;;;26.70;55.00;;;;;;4920775;29;20558;-71
2023/02/24 13:14:33;;;;;;;20.02;11.65;;;26.50;55.50;;;;;;4934243;29;20039;-72
2023/02/24 13:17:17;;;;;;;14.15;11.15;;;26.10;55.80;;;;;;4953394;29;20047;-72
2023/02/24 13:19:46;;;;;;;20.75;13.38;;;26.20;55.80;;;;;;4943499;29;20048;-70
2023/02/24 13:22:14;;;;;;;13.38;10.25;;;26.90;54.60;;;;;;4949277;29;20551;-72
2023/02/24 13:25:07;;;;;;;13.15;10.65;;;27.30;54.00;;;;;;4946044;29;20102;-71
2023/02/24 13:27:42;;;;;;;12.75;10.65;;;27.00;53.70;;;;;;4951612;29;20515;-72
2023/02/24 13:30:18;;;;;;;14.85;10.73;;;26.30;53.80;;;;;;4936207;29;20501;-70
2023/02/24 13:32:58;;;;;;;12.88;9.88;;;26.40;54.20;;;;;;4952691;29;20423;-69
2023/02/24 13:35:25;;;;;;;12.85;9.43;;;26.70;53.70;;;;;;4950582;29;20416;-71
2023/02/24 13:37:53;;;;;;;13.77;10.40;;;26.70;53.10;;;;;;4951749;28;20154;-69
2023/02/24 13:40:27;;;;;;;13.68;10.57;;;26.70;52.80;;;;;;4951742;29;20038;-73
2023/02/24 13:43:00;;;;;;;15.10;10.55;;;24.40;56.80;;;;;;4936959;29;20043;-71
2023/02/24 13:45:36;;;;;;;15.18;10.30;;;23.20;59.60;;;;;;4951470;29;20130;-69
2023/02/24 13:48:18;;;;;;;18.00;11.40;;;23.90;58.80;;;;;;4951712;29;20094;-72
2023/02/24 13:51:07;;;;;;;15.15;10.60;;;25.00;56.50;;;;;;4951985;29;20063;-72
2023/02/24 13:53:49;;;;;;;12.93;9.75;;;23.70;58.70;;;;;;4951295;29;20134;-72
2023/02/24 13:56:27;;;;;;;14.57;10.43;;;22.10;61.90;;;;;;4953077;29;20035;-71